Terminal Aerodrome Forecast
Issued by NWS

Home | Current Version | Previous Version | Text Only | Print | Product List | Glossary Off
Versions: 1 2 3 4 5 6 7 8 9 10 11 12 13 14 15 16 17 18 19 20 21 22 23 24 25 26 27 28 29 30 31 32 33 34

000
FTUS43 KLOT 250922 AAA
TAFDPA
TAF AMD
KDPA 250922Z 2509/2606 08013G18KT P6SM VCSH OVC045
     FM251400 08014G20KT 6SM -RA OVC035
     FM251600 08016G22KT 5SM -RA OVC018
     FM252200 06015G23KT 6SM -RA OVC020
     FM260100 04012KT P6SM FEW020 BKN035=

USA.gov is the U.S. government's official web portal to all federal, state and local government web resources and services.